createdAt,value
2023-04-19T00:00:28.644Z,73.50
2023-04-19T00:02:57.462Z,73.44
2023-04-19T00:05:32.130Z,73.68
2023-04-19T00:08:00.374Z,73.49
2023-04-19T00:10:28.733Z,73.24
2023-04-19T00:12:57.115Z,73.19
2023-04-19T00:15:25.268Z,73.60
2023-04-19T00:17:53.385Z,73.34
2023-04-19T00:20:22.080Z,73.51
2023-04-19T00:22:50.520Z,73.54
2023-04-19T00:25:18.790Z,73.50
2023-04-19T00:27:47.205Z,73.54
2023-04-19T00:30:18.286Z,73.56
2023-04-19T00:32:47.369Z,73.76
2023-04-19T00:35:18.585Z,73.75
2023-04-19T00:37:47.958Z,73.53
2023-04-19T00:40:16.252Z,73.33
2023-04-19T00:42:47.049Z,73.21
2023-04-19T00:45:15.453Z,73.51
2023-04-19T00:47:43.968Z,73.71
2023-04-19T00:50:15.696Z,73.74
2023-04-19T00:52:44.224Z,73.66
2023-04-19T00:55:13.133Z,73.37
2023-04-19T00:57:41.854Z,73.28
2023-04-19T01:00:11.512Z,73.57
2023-04-19T01:02:40.543Z,73.84
2023-04-19T01:05:09.673Z,73.76
2023-04-19T01:07:43.825Z,74.09
2023-04-19T01:10:18.649Z,73.97
2023-04-19T01:12:51.919Z,74.35
2023-04-19T01:15:25.217Z,74.47
2023-04-19T01:17:56.548Z,74.52
2023-04-19T01:20:25.146Z,74.61
2023-04-19T01:23:00.110Z,74.84
2023-04-19T01:25:34.860Z,75.04
2023-04-19T01:28:11.526Z,74.91
2023-04-19T01:30:57.619Z,75.23
2023-04-19T01:33:35.249Z,75.45
2023-04-19T01:36:13.693Z,75.56
2023-04-19T01:38:48.436Z,75.78
2023-04-19T01:41:20.665Z,75.77
2023-04-19T01:43:54.291Z,75.95
2023-04-19T01:46:24.763Z,76.28
2023-04-19T01:48:58.967Z,76.14
2023-04-19T01:51:30.624Z,76.27
2023-04-19T01:54:03.196Z,76.61
2023-04-19T01:56:33.292Z,76.59
2023-04-19T01:59:12.463Z,76.73
2023-04-19T02:01:44.016Z,77.34
2023-04-19T02:04:12.666Z,77.24
2023-04-19T02:06:41.309Z,77.33
2023-04-19T02:09:10.096Z,77.52
2023-04-19T02:11:41.261Z,77.63
2023-04-19T02:14:09.987Z,78.03
2023-04-19T02:16:42.078Z,78.04
2023-04-19T02:19:10.570Z,78.24
2023-04-19T02:21:39.938Z,78.41
2023-04-19T02:24:08.356Z,78.51
2023-04-19T02:26:36.566Z,78.44
2023-04-19T02:29:07.641Z,78.90
2023-04-19T02:31:36.971Z,78.91
2023-04-19T02:34:05.493Z,79.11
2023-04-19T02:36:35.053Z,79.00
2023-04-19T02:39:07.994Z,79.08
2023-04-19T02:41:39.815Z,79.44
2023-04-19T02:44:08.880Z,79.72
2023-04-19T02:46:40.227Z,79.74
2023-04-19T02:49:09.615Z,79.95
2023-04-19T02:51:39.754Z,80.40
2023-04-19T02:54:12.419Z,80.42
2023-04-19T02:56:41.937Z,80.84
2023-04-19T02:59:10.456Z,81.11
2023-04-19T03:01:39.416Z,81.12
2023-04-19T03:04:11.964Z,81.44
2023-04-19T03:06:44.620Z,81.92
2023-04-19T03:09:17.747Z,82.16
2023-04-19T03:11:46.444Z,81.92
2023-04-19T03:14:17.557Z,82.05
2023-04-19T03:16:50.709Z,82.32
2023-04-19T03:19:19.720Z,82.30
2023-04-19T03:21:51.490Z,82.63
2023-04-19T03:24:22.368Z,82.60
2023-04-19T03:26:52.260Z,82.51
2023-04-19T03:29:24.348Z,82.66
2023-04-19T03:31:58.231Z,83.07
2023-04-19T03:34:27.048Z,82.91
2023-04-19T03:36:56.271Z,83.11
2023-04-19T03:39:28.579Z,83.13
2023-04-19T03:42:01.696Z,82.76
2023-04-19T03:45:11.664Z,82.90
2023-04-19T03:47:42.957Z,82.58
2023-04-19T03:50:13.908Z,82.51
2023-04-19T03:52:43.321Z,82.51
2023-04-19T03:55:14.145Z,82.33
2023-04-19T03:57:45.163Z,82.18
2023-04-19T04:00:19.472Z,82.38
2023-04-19T04:02:50.885Z,82.33
2023-04-19T04:05:22.868Z,82.25
2023-04-19T04:07:54.634Z,82.08
2023-04-19T04:10:25.906Z,81.80
2023-04-19T04:12:54.434Z,81.91
2023-04-19T04:15:32.639Z,81.99
2023-04-19T04:18:08.556Z,81.73
2023-04-19T04:20:40.392Z,81.04
2023-04-19T04:23:14.681Z,80.97
2023-04-19T04:25:47.723Z,81.11
2023-04-19T04:28:17.530Z,80.49
2023-04-19T04:30:51.427Z,80.16
2023-04-19T04:33:32.370Z,79.51
2023-04-19T04:36:12.286Z,79.40
2023-04-19T04:38:49.420Z,79.18
2023-04-19T04:41:18.397Z,79.25
2023-04-19T04:44:08.408Z,79.20
2023-04-19T04:46:46.878Z,79.06
2023-04-19T04:49:21.853Z,78.83
2023-04-19T04:51:55.425Z,79.78
2023-04-19T04:54:28.916Z,80.05
2023-04-19T04:57:01.420Z,79.76
2023-04-19T04:59:30.369Z,79.23
2023-04-19T05:01:59.226Z,78.42
2023-04-19T05:04:27.999Z,77.46
2023-04-19T05:06:58.571Z,77.09
2023-04-19T05:09:28.277Z,77.07
2023-04-19T05:12:00.004Z,76.57
2023-04-19T05:14:28.672Z,76.40
2023-04-19T05:17:05.773Z,76.14
2023-04-19T05:19:45.865Z,75.97
2023-04-19T05:22:14.199Z,75.45
2023-04-19T05:24:42.830Z,75.79
2023-04-19T05:27:11.907Z,76.18
2023-04-19T05:29:51.769Z,75.99
2023-04-19T05:32:21.029Z,75.68
2023-04-19T05:34:54.260Z,74.83
2023-04-19T05:37:24.618Z,74.86
2023-04-19T05:39:59.421Z,74.82
2023-04-19T05:42:27.633Z,74.30
2023-04-19T05:44:58.299Z,73.96
2023-04-19T05:47:29.525Z,74.37
2023-04-19T05:50:21.785Z,74.28
2023-04-19T05:53:11.291Z,73.94
2023-04-19T05:55:53.716Z,73.80
2023-04-19T05:58:25.009Z,72.72
2023-04-19T06:00:56.859Z,72.79
2023-04-19T06:03:29.976Z,73.33
2023-04-19T06:06:00.882Z,71.82
2023-04-19T06:09:00.562Z,70.99
2023-04-19T06:11:38.845Z,69.99
2023-04-19T06:14:18.963Z,69.44
2023-04-19T06:17:18.106Z,68.55
2023-04-19T06:19:50.031Z,68.71
2023-04-19T06:22:48.956Z,69.12
2023-04-19T06:25:23.110Z,69.20
2023-04-19T06:28:01.647Z,68.75
2023-04-19T06:30:30.892Z,67.60
2023-04-19T06:33:02.581Z,67.65
2023-04-19T06:35:39.024Z,66.98
2023-04-19T06:38:15.017Z,66.60
2023-04-19T06:40:57.431Z,66.21
2023-04-19T06:43:33.917Z,66.09
2023-04-19T06:46:33.291Z,65.12
2023-04-19T06:49:53.372Z,65.00
2023-04-19T06:52:46.802Z,64.30
2023-04-19T06:55:15.473Z,62.77
2023-04-19T06:57:49.697Z,61.97
2023-04-19T07:00:18.749Z,61.62
2023-04-19T07:02:56.121Z,60.76
2023-04-19T07:05:31.465Z,60.04
2023-04-19T07:08:02.627Z,59.98
2023-04-19T07:10:35.075Z,59.29
2023-04-19T07:13:12.683Z,60.23
2023-04-19T07:15:41.649Z,59.06
2023-04-19T07:18:14.487Z,58.26
2023-04-19T07:20:53.555Z,57.14
2023-04-19T07:23:21.976Z,56.50
2023-04-19T07:25:52.932Z,55.92
2023-04-19T07:28:20.984Z,55.43
2023-04-19T07:30:49.318Z,56.54
2023-04-19T07:33:20.728Z,57.01
2023-04-19T07:35:52.349Z,56.81
2023-04-19T07:38:25.172Z,56.66
2023-04-19T07:41:04.492Z,55.92
2023-04-19T07:43:43.923Z,56.24
2023-04-19T07:46:13.502Z,55.35
2023-04-19T07:48:42.871Z,54.26
2023-04-19T07:51:16.643Z,54.94
2023-04-19T07:53:48.555Z,54.24
2023-04-19T07:56:34.840Z,54.40
2023-04-19T07:59:13.768Z,54.37
2023-04-19T08:01:43.038Z,54.12
2023-04-19T08:04:11.526Z,53.06
2023-04-19T08:06:44.462Z,53.22
2023-04-19T08:09:23.074Z,53.88
2023-04-19T08:12:34.631Z,53.61
2023-04-19T08:15:36.150Z,52.71
2023-04-19T08:17:59.212Z,51.86
2023-04-19T08:20:28.095Z,52.42
2023-04-19T08:22:57.001Z,52.38
2023-04-19T08:25:40.852Z,52.21
2023-04-19T08:28:25.808Z,51.63
2023-04-19T08:30:58.909Z,51.08
2023-04-19T08:33:29.120Z,51.50
2023-04-19T08:36:22.466Z,51.90
2023-04-19T08:39:29.205Z,51.99
2023-04-19T08:42:05.433Z,50.80
2023-04-19T08:45:02.308Z,50.60
2023-04-19T08:47:35.582Z,50.85
2023-04-19T08:50:24.106Z,51.09
2023-04-19T08:55:40.916Z,51.04
2023-04-19T08:58:28.471Z,50.94
2023-04-19T09:01:12.760Z,51.22
2023-04-19T09:04:07.261Z,51.56
2023-04-19T09:06:48.697Z,50.49
2023-04-19T09:12:00.135Z,50.48
2023-04-19T09:14:29.455Z,50.56
2023-04-19T09:17:16.560Z,50.98
2023-04-19T09:19:50.120Z,51.05
2023-04-19T09:22:22.062Z,50.71
2023-04-19T09:27:34.745Z,49.84
2023-04-19T09:30:12.715Z,48.10
2023-04-19T09:32:49.217Z,47.27
2023-04-19T09:35:21.839Z,47.76
2023-04-19T09:38:06.084Z,46.99
2023-04-19T09:40:41.622Z,47.62
2023-04-19T09:43:32.898Z,47.61
2023-04-19T09:46:01.962Z,47.15
2023-04-19T09:48:30.854Z,48.00
2023-04-19T09:51:05.821Z,47.98
2023-04-19T09:53:43.024Z,47.23
2023-04-19T09:56:14.334Z,47.06
2023-04-19T09:58:51.227Z,47.46
2023-04-19T10:01:26.358Z,47.94
2023-04-19T10:03:55.878Z,46.91
2023-04-19T10:06:40.115Z,46.11
2023-04-19T10:09:12.286Z,46.81
2023-04-19T10:11:41.513Z,47.48
2023-04-19T10:14:11.608Z,47.56
2023-04-19T10:16:39.904Z,47.17
2023-04-19T10:19:10.182Z,47.81
2023-04-19T10:21:38.815Z,48.71
2023-04-19T10:24:07.226Z,47.91
2023-04-19T10:27:13.323Z,47.86
2023-04-19T10:30:01.116Z,48.23
2023-04-19T10:32:30.357Z,48.28
2023-04-19T10:35:06.272Z,48.33
2023-04-19T10:37:34.585Z,49.00
2023-04-19T10:40:04.361Z,49.59
2023-04-19T10:43:11.040Z,49.88
2023-04-19T10:45:39.880Z,49.07
2023-04-19T10:48:35.685Z,49.01
2023-04-19T10:51:16.744Z,49.54
2023-04-19T10:53:45.725Z,50.23
2023-04-19T10:56:13.956Z,49.67
2023-04-19T10:59:21.010Z,50.24
2023-04-19T11:01:54.214Z,50.73
2023-04-19T11:04:32.095Z,51.41
2023-04-19T11:07:05.533Z,51.73
2023-04-19T11:09:42.960Z,51.21
2023-04-19T11:12:15.555Z,50.41
2023-04-19T11:14:48.177Z,50.81
2023-04-19T11:17:18.051Z,51.02
2023-04-19T11:19:46.393Z,51.29
2023-04-19T11:22:14.566Z,51.82
2023-04-19T11:24:47.929Z,51.89
2023-04-19T11:27:16.217Z,52.14
2023-04-19T11:29:44.681Z,53.21
2023-04-19T11:32:12.746Z,52.26
2023-04-19T11:34:41.536Z,51.70
2023-04-19T11:37:14.554Z,52.21
2023-04-19T11:39:48.492Z,52.64
2023-04-19T11:42:18.897Z,53.05
2023-04-19T11:44:52.006Z,53.64
2023-04-19T11:47:20.538Z,53.62
2023-04-19T11:49:48.759Z,53.33
2023-04-19T11:52:29.485Z,53.90
2023-04-19T11:54:57.765Z,54.72
2023-04-19T11:57:30.042Z,55.14
2023-04-19T12:00:12.258Z,55.53
2023-04-19T12:02:43.553Z,55.39
2023-04-19T12:05:14.559Z,55.73
2023-04-19T12:08:06.464Z,55.80
2023-04-19T12:10:36.563Z,56.01
2023-04-19T12:13:18.337Z,56.21
2023-04-19T12:15:46.784Z,56.93
2023-04-19T12:18:16.476Z,57.38
2023-04-19T12:20:46.833Z,57.60
2023-04-19T12:23:16.102Z,58.00
2023-04-19T12:25:46.312Z,58.74
2023-04-19T12:28:15.486Z,59.42
2023-04-19T12:30:44.104Z,59.84
2023-04-19T12:33:12.636Z,60.42
2023-04-19T12:35:41.294Z,61.07
2023-04-19T12:38:09.716Z,61.99
2023-04-19T12:40:38.315Z,62.81
2023-04-19T12:43:09.004Z,63.80
2023-04-19T12:45:37.166Z,64.67
2023-04-19T12:48:05.447Z,65.68
2023-04-19T12:50:35.064Z,66.67
2023-04-19T12:53:03.546Z,67.48
2023-04-19T12:55:33.646Z,68.58
2023-04-19T12:58:01.821Z,69.18
2023-04-19T13:00:30.617Z,69.09
2023-04-19T13:02:58.712Z,69.41
2023-04-19T13:05:27.121Z,69.79
2023-04-19T13:07:55.568Z,70.40
2023-04-19T13:10:23.553Z,71.09
2023-04-19T13:12:51.809Z,71.42
2023-04-19T13:15:20.046Z,71.42
2023-04-19T13:17:50.074Z,72.15
2023-04-19T13:20:24.518Z,72.24
2023-04-19T13:22:53.504Z,72.05
2023-04-19T13:25:22.328Z,72.56
2023-04-19T13:27:52.035Z,73.13
2023-04-19T13:30:20.773Z,73.22
2023-04-19T13:32:50.000Z,73.17
2023-04-19T13:35:18.808Z,72.61
2023-04-19T13:37:47.862Z,72.33
2023-04-19T13:40:19.166Z,72.45
2023-04-19T13:42:51.626Z,72.93
2023-04-19T13:45:23.478Z,73.55
2023-04-19T13:47:55.011Z,73.85
2023-04-19T13:50:29.285Z,74.35
2023-04-19T13:53:00.765Z,74.66
2023-04-19T13:55:29.363Z,75.72
2023-04-19T13:57:57.608Z,76.64
2023-04-19T14:00:30.975Z,77.42
2023-04-19T14:02:59.594Z,78.25
2023-04-19T14:05:32.492Z,77.44
2023-04-19T14:08:01.395Z,77.92
2023-04-19T14:10:30.408Z,77.88
2023-04-19T14:12:58.631Z,77.93
2023-04-19T14:15:26.915Z,78.30
2023-04-19T14:17:55.394Z,78.85
2023-04-19T14:20:24.133Z,79.07
2023-04-19T14:22:56.586Z,79.34
2023-04-19T14:25:26.729Z,79.48
2023-04-19T14:27:56.327Z,79.65
2023-04-19T14:30:31.330Z,79.56
2023-04-19T14:32:59.658Z,79.33
2023-04-19T14:35:31.273Z,79.14
2023-04-19T14:38:02.214Z,78.90
2023-04-19T14:40:30.506Z,78.04
2023-04-19T14:43:01.704Z,77.58
2023-04-19T14:45:33.172Z,77.17
2023-04-19T14:48:01.874Z,76.82
2023-04-19T14:50:30.432Z,76.95
2023-04-19T14:52:58.774Z,76.73
2023-04-19T14:55:44.721Z,76.43
2023-04-19T14:58:16.198Z,75.84
2023-04-19T15:00:44.582Z,75.35
2023-04-19T15:03:13.023Z,73.98
2023-04-19T15:05:44.334Z,73.11
2023-04-19T15:08:27.198Z,72.56
2023-04-19T15:11:00.534Z,72.33
2023-04-19T15:13:30.093Z,71.56
2023-04-19T15:16:00.679Z,70.63
2023-04-19T15:18:31.049Z,70.22
2023-04-19T15:20:59.660Z,69.70
2023-04-19T15:23:28.520Z,69.12
2023-04-19T15:26:05.461Z,69.05
2023-04-19T15:28:38.685Z,69.16
2023-04-19T15:31:15.304Z,68.68
2023-04-19T15:33:49.746Z,68.66
2023-04-19T15:36:23.900Z,67.94
2023-04-19T15:39:04.872Z,68.05
2023-04-19T15:41:33.502Z,68.08
2023-04-19T15:44:07.544Z,68.00
2023-04-19T15:46:38.519Z,67.93
2023-04-19T15:49:09.267Z,67.74
2023-04-19T15:51:39.818Z,67.88
2023-04-19T15:54:11.246Z,68.06
2023-04-19T15:56:40.268Z,68.33
2023-04-19T15:59:23.265Z,68.47
2023-04-19T16:01:56.011Z,68.86
2023-04-19T16:04:25.178Z,69.08
2023-04-19T16:06:56.784Z,69.63
2023-04-19T16:09:33.670Z,69.38
2023-04-19T16:12:10.727Z,69.35
2023-04-19T16:14:41.914Z,69.33
2023-04-19T16:17:13.111Z,69.48
2023-04-19T16:19:42.380Z,69.39
2023-04-19T16:22:12.453Z,69.18
2023-04-19T16:24:44.140Z,69.22
2023-04-19T16:27:14.388Z,69.07
2023-04-19T16:29:48.463Z,69.32
2023-04-19T16:32:22.486Z,69.04
2023-04-19T16:35:07.312Z,68.89
2023-04-19T16:37:46.573Z,68.84
2023-04-19T16:40:15.166Z,68.76
2023-04-19T16:42:43.758Z,68.97
2023-04-19T16:45:17.973Z,69.03
2023-04-19T16:47:50.153Z,68.92
2023-04-19T16:50:19.378Z,69.05
2023-04-19T16:52:48.249Z,69.03
2023-04-19T16:55:16.813Z,69.11
2023-04-19T16:57:49.659Z,69.18
2023-04-19T17:00:20.993Z,69.14
2023-04-19T17:02:49.425Z,69.09
2023-04-19T17:05:21.087Z,69.03
2023-04-19T17:07:55.374Z,68.91
2023-04-19T17:10:30.573Z,69.12
2023-04-19T17:12:59.993Z,69.04
2023-04-19T17:15:51.033Z,69.60
2023-04-19T17:18:22.355Z,69.85
2023-04-19T17:20:53.636Z,69.71
2023-04-19T17:24:01.560Z,69.75
2023-04-19T17:27:04.499Z,69.87
2023-04-19T17:29:35.680Z,70.16
2023-04-19T17:32:05.209Z,70.43
2023-04-19T17:34:40.372Z,70.21
2023-04-19T17:37:16.014Z,70.16
2023-04-19T17:39:46.182Z,70.27
2023-04-19T17:42:30.387Z,70.45
2023-04-19T17:45:02.609Z,70.47
2023-04-19T17:51:25.593Z,70.63
2023-04-19T17:54:02.877Z,70.44
2023-04-19T17:56:43.224Z,70.82
2023-04-19T17:59:12.477Z,71.02
2023-04-19T18:01:44.836Z,71.27
2023-04-19T18:04:20.753Z,71.42
2023-04-19T18:06:53.331Z,71.81
2023-04-19T18:09:22.248Z,71.99
2023-04-19T18:11:53.884Z,71.68
2023-04-19T18:14:25.456Z,71.04
2023-04-19T18:16:53.953Z,70.54
2023-04-19T18:19:24.431Z,69.80
2023-04-19T18:21:56.493Z,69.43
2023-04-19T18:24:25.760Z,69.05
2023-04-19T18:27:02.885Z,68.95
2023-04-19T18:29:38.868Z,67.83
2023-04-19T18:32:11.144Z,67.49
2023-04-19T18:34:40.779Z,67.18
2023-04-19T18:37:40.738Z,66.69
2023-04-19T18:40:12.935Z,66.57
2023-04-19T18:42:54.814Z,66.71
2023-04-19T18:45:39.929Z,66.87
2023-04-19T18:48:14.443Z,67.41
2023-04-19T18:50:43.628Z,67.87
2023-04-19T18:53:16.337Z,68.05
2023-04-19T18:55:48.060Z,68.47
2023-04-19T18:58:22.794Z,68.74
2023-04-19T19:00:55.088Z,69.29
2023-04-19T19:05:59.938Z,70.05
2023-04-19T19:08:43.037Z,70.69
2023-04-19T19:14:25.343Z,71.95
2023-04-19T19:16:57.711Z,72.52
2023-04-19T19:19:29.060Z,72.89
2023-04-19T19:22:07.447Z,73.63
2023-04-19T19:25:18.040Z,74.05
2023-04-19T19:30:32.222Z,75.49
2023-04-19T19:33:40.678Z,75.86
2023-04-19T19:43:04.530Z,77.80
2023-04-19T19:52:41.253Z,78.76
2023-04-19T19:55:45.880Z,78.90
2023-04-19T20:01:50.306Z,79.23
2023-04-19T20:04:41.985Z,79.35
2023-04-19T20:10:36.575Z,80.04
2023-04-19T20:16:43.695Z,79.83
2023-04-19T20:19:12.873Z,79.93
2023-04-19T20:22:04.195Z,78.85
2023-04-19T20:25:35.180Z,78.29
2023-04-19T20:28:17.054Z,76.81
2023-04-19T20:31:03.144Z,75.77
2023-04-19T20:33:37.100Z,74.40
2023-04-19T20:48:57.690Z,71.69
2023-04-19T20:51:32.048Z,71.15
2023-04-19T20:54:45.915Z,70.79
2023-04-19T20:57:37.976Z,70.59
2023-04-19T21:03:54.096Z,70.46
2023-04-19T21:06:26.539Z,70.20
2023-04-19T21:09:08.542Z,70.05
2023-04-19T21:11:40.388Z,70.03
2023-04-19T21:14:13.156Z,70.10
2023-04-19T21:16:56.996Z,69.96
2023-04-19T21:20:41.907Z,69.86
2023-04-19T21:23:21.026Z,69.64
2023-04-19T21:26:10.072Z,69.66
2023-04-19T21:28:58.426Z,69.65
2023-04-19T21:31:37.622Z,69.22
2023-04-19T21:34:09.091Z,69.02
2023-04-19T21:36:42.079Z,69.07
2023-04-19T21:42:33.119Z,69.02
2023-04-19T21:45:07.673Z,69.02
2023-04-19T21:48:06.106Z,69.07
2023-04-19T21:53:52.202Z,69.34
2023-04-19T21:56:22.395Z,69.26
2023-04-19T21:58:56.231Z,69.46
2023-04-19T22:01:27.850Z,69.19
2023-04-19T22:04:16.843Z,68.93
2023-04-19T22:06:52.455Z,69.07
2023-04-19T22:10:07.457Z,68.82
2023-04-19T22:12:58.666Z,69.12
2023-04-19T22:15:56.073Z,68.90
2023-04-19T22:18:41.837Z,69.05
2023-04-19T22:21:25.272Z,69.11
2023-04-19T22:30:22.577Z,69.02
2023-04-19T22:33:02.915Z,68.96
2023-04-19T22:35:36.111Z,69.00
2023-04-19T22:38:07.790Z,68.71
2023-04-19T22:40:54.124Z,68.28
2023-04-19T22:43:26.930Z,68.13
2023-04-19T22:46:06.029Z,68.03
2023-04-19T22:49:16.441Z,67.93
2023-04-19T22:51:50.571Z,67.85
2023-04-19T22:54:21.903Z,67.83
2023-04-19T22:57:12.944Z,67.61
2023-04-19T22:59:45.930Z,67.67
2023-04-19T23:02:15.108Z,67.71
2023-04-19T23:04:52.580Z,67.58
2023-04-19T23:07:26.248Z,67.64
2023-04-19T23:09:58.177Z,67.69
2023-04-19T23:12:31.892Z,67.45
2023-04-19T23:15:38.751Z,67.37
2023-04-19T23:21:17.637Z,67.56
2023-04-19T23:24:00.660Z,67.22
2023-04-19T23:27:24.572Z,67.37
2023-04-19T23:36:21.822Z,67.03
2023-04-19T23:39:25.129Z,67.03
2023-04-19T23:42:19.305Z,66.85
2023-04-19T23:45:17.163Z,66.91
2023-04-19T23:48:18.853Z,66.52
2023-04-19T23:52:37.543Z,66.63
2023-04-19T23:59:04.461Z,66.67
